Dorchester, New Jersey
Current Conditions -  °F | °C
As of 12:54 AM on Sunday 23 Nov 2014 (Local Time) from KMIV Reporting Station
Broken Clouds Broken Clouds  
Wind Chill: 39°   Ceiling: 12000
Heat Index: 43°   Visibility: 10mi
Dew Point: 25°   Wind: 6mph
Humidity: 49%   Direction: NA
Pressure: 30.25"   Gusts: NA
Location:  39.27°N, 74.98°W
Report Text: KMIV 230554Z AUTO VRB05KT 10SM BKN120 06/M04 A3025 RMK AO2 SLP245 T00611039 10061 20044 58011
Loading
Personal Weather Stations






























Interactive Weather Map New forecast layout! Learn more

10-Day Weather Forecast

Advertisements
Track Severe Weather on mobile